Liberty City, Texas
Current Conditions -  °F | °C
As of 8:53 AM on Sunday 23 Nov 2014 (Local Time) from KGGG Reporting Station
Light Rain Light Rain  
Wind Chill: 63°   Ceiling: 400
Heat Index: 63°   Visibility: 10mi
Dew Point: 61°   Wind: 7mph
Humidity: 93%   Direction: 240°WSW
Pressure: 29.58"   Gusts: NA
Location:  32.3769°N, 94.8692°W
Report Text: KGGG 231453Z 24006KT 10SM -RA BKN004 OVC010 17/16 A2958 RMK AO2 RAB52 CIG 002V006 SLP014 P0000 60007 T01720161 58001
Loading
Personal Weather Stations






























Interactive Weather Map New forecast layout! Learn more

10-Day Weather Forecast

Advertisements
Track Severe Weather on mobile